sensor_id;sensor_type;location;lat;lon;timestamp;P1;durP1;ratioP1;P2;durP2;ratioP2
32505;SDS011;18955;51.224;8.482;2023-07-29T00:02:13;5.85;;;2.05;;
32505;SDS011;18955;51.224;8.482;2023-07-29T00:04:39;3.05;;;2.03;;
32505;SDS011;18955;51.224;8.482;2023-07-29T00:07:05;2.17;;;1.77;;
32505;SDS011;18955;51.224;8.482;2023-07-29T00:09:31;4.38;;;1.80;;
32505;SDS011;18955;51.224;8.482;2023-07-29T00:11:58;1.25;;;1.20;;
32505;SDS011;18955;51.224;8.482;2023-07-29T00:14:24;2.00;;;1.60;;
32505;SDS011;18955;51.224;8.482;2023-07-29T00:16:50;2.53;;;1.60;;
32505;SDS011;18955;51.224;8.482;2023-07-29T00:19:16;1.75;;;1.65;;
32505;SDS011;18955;51.224;8.482;2023-07-29T00:21:42;4.47;;;1.77;;
32505;SDS011;18955;51.224;8.482;2023-07-29T00:24:09;6.35;;;1.30;;
32505;SDS011;18955;51.224;8.482;2023-07-29T00:26:35;1.15;;;1.15;;
32505;SDS011;18955;51.224;8.482;2023-07-29T00:29:01;1.50;;;1.38;;
32505;SDS011;18955;51.224;8.482;2023-07-29T00:31:27;1.40;;;1.30;;
32505;SDS011;18955;51.224;8.482;2023-07-29T00:33:53;2.35;;;1.05;;
32505;SDS011;18955;51.224;8.482;2023-07-29T00:36:19;6.43;;;1.40;;
32505;SDS011;18955;51.224;8.482;2023-07-29T00:38:46;5.68;;;1.52;;
32505;SDS011;18955;51.224;8.482;2023-07-29T00:41:12;2.65;;;0.80;;
32505;SDS011;18955;51.224;8.482;2023-07-29T00:43:41;0.90;;;0.90;;
32505;SDS011;18955;51.224;8.482;2023-07-29T00:46:08;1.52;;;1.20;;
32505;SDS011;18955;51.224;8.482;2023-07-29T00:48:35;5.07;;;1.00;;
32505;SDS011;18955;51.224;8.482;2023-07-29T00:51:02;1.10;;;0.80;;
32505;SDS011;18955;51.224;8.482;2023-07-29T00:53:29;1.10;;;1.00;;
32505;SDS011;18955;51.224;8.482;2023-07-29T00:55:55;3.30;;;1.00;;
32505;SDS011;18955;51.224;8.482;2023-07-29T00:58:21;3.95;;;1.10;;
32505;SDS011;18955;51.224;8.482;2023-07-29T01:00:47;3.72;;;0.90;;
32505;SDS011;18955;51.224;8.482;2023-07-29T01:03:14;1.52;;;0.82;;
32505;SDS011;18955;51.224;8.482;2023-07-29T01:06:03;1.00;;;1.00;;
32505;SDS011;18955;51.224;8.482;2023-07-29T01:08:38;5.65;;;1.23;;
32505;SDS011;18955;51.224;8.482;2023-07-29T01:11:15;4.53;;;1.20;;
32505;SDS011;18955;51.224;8.482;2023-07-29T01:13:55;1.30;;;1.13;;
32505;SDS011;18955;51.224;8.482;2023-07-29T01:16:39;1.00;;;1.00;;
32505;SDS011;18955;51.224;8.482;2023-07-29T01:19:38;4.07;;;1.40;;
32505;SDS011;18955;51.224;8.482;2023-07-29T01:22:01;1.88;;;1.60;;
32505;SDS011;18955;51.224;8.482;2023-07-29T01:24:29;4.95;;;1.30;;
32505;SDS011;18955;51.224;8.482;2023-07-29T01:26:55;2.97;;;1.60;;
32505;SDS011;18955;51.224;8.482;2023-07-29T01:29:22;3.97;;;1.35;;
32505;SDS011;18955;51.224;8.482;2023-07-29T01:34:26;2.58;;;1.23;;
32505;SDS011;18955;51.224;8.482;2023-07-29T01:37:00;3.47;;;1.40;;
32505;SDS011;18955;51.224;8.482;2023-07-29T01:39:32;3.22;;;1.30;;
32505;SDS011;18955;51.224;8.482;2023-07-29T01:42:02;1.35;;;1.20;;
32505;SDS011;18955;51.224;8.482;2023-07-29T01:44:29;1.13;;;1.08;;
32505;SDS011;18955;51.224;8.482;2023-07-29T01:46:55;3.97;;;1.40;;
32505;SDS011;18955;51.224;8.482;2023-07-29T01:49:22;1.50;;;1.42;;
32505;SDS011;18955;51.224;8.482;2023-07-29T01:51:48;7.65;;;1.60;;
32505;SDS011;18955;51.224;8.482;2023-07-29T01:54:14;7.57;;;1.45;;
32505;SDS011;18955;51.224;8.482;2023-07-29T01:56:40;6.35;;;1.35;;
32505;SDS011;18955;51.224;8.482;2023-07-29T01:59:07;2.05;;;1.20;;
32505;SDS011;18955;51.224;8.482;2023-07-29T02:01:33;2.83;;;1.20;;
32505;SDS011;18955;51.224;8.482;2023-07-29T02:04:00;2.75;;;1.15;;
32505;SDS011;18955;51.224;8.482;2023-07-29T02:06:26;7.18;;;1.92;;
32505;SDS011;18955;51.224;8.482;2023-07-29T02:08:53;3.47;;;1.70;;
32505;SDS011;18955;51.224;8.482;2023-07-29T02:11:20;3.83;;;1.40;;
32505;SDS011;18955;51.224;8.482;2023-07-29T02:13:53;4.20;;;2.10;;
32505;SDS011;18955;51.224;8.482;2023-07-29T02:16:20;7.03;;;1.63;;
32505;SDS011;18955;51.224;8.482;2023-07-29T02:18:48;1.60;;;1.50;;
32505;SDS011;18955;51.224;8.482;2023-07-29T02:21:15;2.10;;;1.45;;
32505;SDS011;18955;51.224;8.482;2023-07-29T02:23:42;3.20;;;1.50;;
32505;SDS011;18955;51.224;8.482;2023-07-29T02:26:08;1.95;;;1.50;;
32505;SDS011;18955;51.224;8.482;2023-07-29T02:28:35;2.10;;;1.40;;
32505;SDS011;18955;51.224;8.482;2023-07-29T02:31:20;3.63;;;1.30;;
32505;SDS011;18955;51.224;8.482;2023-07-29T02:33:47;7.45;;;1.60;;
32505;SDS011;18955;51.224;8.482;2023-07-29T02:36:15;2.95;;;1.10;;
32505;SDS011;18955;51.224;8.482;2023-07-29T02:41:09;2.03;;;1.30;;
32505;SDS011;18955;51.224;8.482;2023-07-29T02:43:37;3.60;;;1.35;;
32505;SDS011;18955;51.224;8.482;2023-07-29T02:46:04;3.08;;;1.35;;
32505;SDS011;18955;51.224;8.482;2023-07-29T02:48:30;1.05;;;1.02;;
32505;SDS011;18955;51.224;8.482;2023-07-29T02:50:57;1.20;;;1.10;;
32505;SDS011;18955;51.224;8.482;2023-07-29T02:53:24;7.13;;;1.17;;
32505;SDS011;18955;51.224;8.482;2023-07-29T02:55:50;2.90;;;1.38;;
32505;SDS011;18955;51.224;8.482;2023-07-29T02:58:19;2.53;;;1.70;;
32505;SDS011;18955;51.224;8.482;2023-07-29T03:00:45;2.65;;;1.40;;
32505;SDS011;18955;51.224;8.482;2023-07-29T03:03:14;1.67;;;1.45;;
32505;SDS011;18955;51.224;8.482;2023-07-29T03:05:40;2.10;;;1.48;;
32505;SDS011;18955;51.224;8.482;2023-07-29T03:08:06;4.45;;;1.33;;
32505;SDS011;18955;51.224;8.482;2023-07-29T03:10:34;1.40;;;1.25;;
32505;SDS011;18955;51.224;8.482;2023-07-29T03:13:01;1.00;;;1.00;;
32505;SDS011;18955;51.224;8.482;2023-07-29T03:15:28;1.67;;;1.02;;
32505;SDS011;18955;51.224;8.482;2023-07-29T03:17:54;3.08;;;1.23;;
32505;SDS011;18955;51.224;8.482;2023-07-29T03:20:20;2.33;;;1.20;;
32505;SDS011;18955;51.224;8.482;2023-07-29T03:22:47;3.45;;;1.27;;
32505;SDS011;18955;51.224;8.482;2023-07-29T03:25:13;3.92;;;1.10;;
32505;SDS011;18955;51.224;8.482;2023-07-29T03:27:39;4.95;;;1.17;;
32505;SDS011;18955;51.224;8.482;2023-07-29T03:30:06;3.65;;;1.05;;
32505;SDS011;18955;51.224;8.482;2023-07-29T03:32:33;3.15;;;1.20;;
32505;SDS011;18955;51.224;8.482;2023-07-29T03:34:59;3.97;;;1.20;;
32505;SDS011;18955;51.224;8.482;2023-07-29T03:37:25;2.45;;;1.00;;
32505;SDS011;18955;51.224;8.482;2023-07-29T03:39:51;2.00;;;0.95;;
32505;SDS011;18955;51.224;8.482;2023-07-29T03:42:18;3.78;;;0.98;;
32505;SDS011;18955;51.224;8.482;2023-07-29T03:44:44;1.73;;;0.90;;
32505;SDS011;18955;51.224;8.482;2023-07-29T03:47:10;3.65;;;1.10;;
32505;SDS011;18955;51.224;8.482;2023-07-29T03:49:38;2.10;;;1.17;;
32505;SDS011;18955;51.224;8.482;2023-07-29T03:52:06;2.60;;;1.17;;
32505;SDS011;18955;51.224;8.482;2023-07-29T03:54:32;8.50;;;2.05;;
32505;SDS011;18955;51.224;8.482;2023-07-29T03:56:58;1.48;;;0.73;;
32505;SDS011;18955;51.224;8.482;2023-07-29T03:59:24;1.30;;;1.10;;
32505;SDS011;18955;51.224;8.482;2023-07-29T04:01:51;2.00;;;1.10;;
32505;SDS011;18955;51.224;8.482;2023-07-29T04:04:17;1.10;;;0.90;;
32505;SDS011;18955;51.224;8.482;2023-07-29T04:06:43;1.80;;;1.10;;
32505;SDS011;18955;51.224;8.482;2023-07-29T04:09:09;1.15;;;1.00;;
32505;SDS011;18955;51.224;8.482;2023-07-29T04:14:02;11.82;;;2.08;;
32505;SDS011;18955;51.224;8.482;2023-07-29T04:16:28;7.50;;;1.05;;
32505;SDS011;18955;51.224;8.482;2023-07-29T04:18:55;2.05;;;0.85;;
32505;SDS011;18955;51.224;8.482;2023-07-29T04:21:21;2.25;;;1.25;;
32505;SDS011;18955;51.224;8.482;2023-07-29T04:23:47;4.95;;;1.30;;
32505;SDS011;18955;51.224;8.482;2023-07-29T04:26:13;2.05;;;1.58;;
32505;SDS011;18955;51.224;8.482;2023-07-29T04:28:40;2.97;;;1.52;;
32505;SDS011;18955;51.224;8.482;2023-07-29T04:31:06;4.30;;;1.25;;
32505;SDS011;18955;51.224;8.482;2023-07-29T04:33:32;2.75;;;1.70;;
32505;SDS011;18955;51.224;8.482;2023-07-29T04:35:58;2.22;;;1.13;;
32505;SDS011;18955;51.224;8.482;2023-07-29T04:38:30;5.93;;;1.50;;
32505;SDS011;18955;51.224;8.482;2023-07-29T04:40:58;3.90;;;1.00;;
32505;SDS011;18955;51.224;8.482;2023-07-29T04:43:30;4.93;;;1.25;;
32505;SDS011;18955;51.224;8.482;2023-07-29T04:45:56;3.92;;;1.10;;
32505;SDS011;18955;51.224;8.482;2023-07-29T04:48:23;4.45;;;1.17;;
32505;SDS011;18955;51.224;8.482;2023-07-29T04:50:49;1.55;;;0.82;;
32505;SDS011;18955;51.224;8.482;2023-07-29T04:53:15;1.85;;;1.00;;
32505;SDS011;18955;51.224;8.482;2023-07-29T04:55:42;1.02;;;0.43;;
32505;SDS011;18955;51.224;8.482;2023-07-29T04:58:09;2.83;;;0.57;;
32505;SDS011;18955;51.224;8.482;2023-07-29T05:00:35;5.43;;;0.60;;
32505;SDS011;18955;51.224;8.482;2023-07-29T05:05:28;0.68;;;0.57;;
32505;SDS011;18955;51.224;8.482;2023-07-29T05:07:56;1.77;;;0.50;;
32505;SDS011;18955;51.224;8.482;2023-07-29T05:10:22;1.80;;;0.80;;
32505;SDS011;18955;51.224;8.482;2023-07-29T05:12:48;2.17;;;0.60;;
32505;SDS011;18955;51.224;8.482;2023-07-29T05:15:14;2.28;;;0.70;;
32505;SDS011;18955;51.224;8.482;2023-07-29T05:17:41;0.35;;;0.32;;
32505;SDS011;18955;51.224;8.482;2023-07-29T05:20:07;0.40;;;0.40;;
32505;SDS011;18955;51.224;8.482;2023-07-29T05:25:00;2.92;;;0.80;;
32505;SDS011;18955;51.224;8.482;2023-07-29T05:27:26;4.38;;;0.90;;
32505;SDS011;18955;51.224;8.482;2023-07-29T05:29:53;0.70;;;0.70;;
32505;SDS011;18955;51.224;8.482;2023-07-29T05:32:19;2.40;;;0.80;;
32505;SDS011;18955;51.224;8.482;2023-07-29T05:34:45;6.18;;;0.63;;
32505;SDS011;18955;51.224;8.482;2023-07-29T05:37:11;5.00;;;0.88;;
32505;SDS011;18955;51.224;8.482;2023-07-29T05:39:37;1.45;;;0.82;;
32505;SDS011;18955;51.224;8.482;2023-07-29T05:42:04;0.77;;;0.60;;
32505;SDS011;18955;51.224;8.482;2023-07-29T05:44:30;2.33;;;1.13;;
32505;SDS011;18955;51.224;8.482;2023-07-29T05:46:57;2.20;;;0.90;;
32505;SDS011;18955;51.224;8.482;2023-07-29T05:49:23;3.33;;;0.90;;
32505;SDS011;18955;51.224;8.482;2023-07-29T05:51:49;4.93;;;1.20;;
32505;SDS011;18955;51.224;8.482;2023-07-29T05:54:18;9.45;;;1.40;;
32505;SDS011;18955;51.224;8.482;2023-07-29T05:56:44;4.40;;;0.93;;
32505;SDS011;18955;51.224;8.482;2023-07-29T05:59:10;2.10;;;1.23;;
32505;SDS011;18955;51.224;8.482;2023-07-29T06:01:37;3.65;;;0.90;;
32505;SDS011;18955;51.224;8.482;2023-07-29T06:04:03;4.32;;;1.45;;
32505;SDS011;18955;51.224;8.482;2023-07-29T06:06:29;2.95;;;0.90;;
32505;SDS011;18955;51.224;8.482;2023-07-29T06:08:56;1.38;;;1.27;;
32505;SDS011;18955;51.224;8.482;2023-07-29T06:11:22;4.78;;;1.35;;
32505;SDS011;18955;51.224;8.482;2023-07-29T06:13:48;1.83;;;0.52;;
32505;SDS011;18955;51.224;8.482;2023-07-29T06:16:15;0.85;;;0.73;;
32505;SDS011;18955;51.224;8.482;2023-07-29T06:18:42;1.35;;;0.70;;
32505;SDS011;18955;51.224;8.482;2023-07-29T06:21:08;0.68;;;0.60;;
32505;SDS011;18955;51.224;8.482;2023-07-29T06:23:38;0.75;;;0.75;;
32505;SDS011;18955;51.224;8.482;2023-07-29T06:26:04;1.23;;;0.70;;
32505;SDS011;18955;51.224;8.482;2023-07-29T06:28:32;2.97;;;0.80;;
32505;SDS011;18955;51.224;8.482;2023-07-29T06:30:58;9.88;;;1.10;;
32505;SDS011;18955;51.224;8.482;2023-07-29T06:33:24;0.98;;;0.90;;
32505;SDS011;18955;51.224;8.482;2023-07-29T06:35:50;1.40;;;0.98;;
32505;SDS011;18955;51.224;8.482;2023-07-29T06:38:17;2.35;;;1.05;;
32505;SDS011;18955;51.224;8.482;2023-07-29T06:40:49;1.10;;;1.00;;
32505;SDS011;18955;51.224;8.482;2023-07-29T06:43:16;2.42;;;1.02;;
32505;SDS011;18955;51.224;8.482;2023-07-29T06:45:42;2.38;;;1.08;;
32505;SDS011;18955;51.224;8.482;2023-07-29T06:48:09;0.95;;;0.88;;
32505;SDS011;18955;51.224;8.482;2023-07-29T06:50:35;1.83;;;1.10;;
32505;SDS011;18955;51.224;8.482;2023-07-29T06:53:02;0.60;;;0.60;;
32505;SDS011;18955;51.224;8.482;2023-07-29T06:55:29;1.23;;;1.13;;
32505;SDS011;18955;51.224;8.482;2023-07-29T06:57:55;1.48;;;1.38;;
32505;SDS011;18955;51.224;8.482;2023-07-29T07:00:21;2.13;;;1.00;;
32505;SDS011;18955;51.224;8.482;2023-07-29T07:02:47;1.75;;;1.52;;
32505;SDS011;18955;51.224;8.482;2023-07-29T07:05:14;2.58;;;2.20;;
32505;SDS011;18955;51.224;8.482;2023-07-29T07:07:40;5.63;;;1.73;;
32505;SDS011;18955;51.224;8.482;2023-07-29T07:10:07;7.00;;;2.50;;
32505;SDS011;18955;51.224;8.482;2023-07-29T07:12:33;4.05;;;2.30;;
32505;SDS011;18955;51.224;8.482;2023-07-29T07:15:00;3.55;;;2.20;;
32505;SDS011;18955;51.224;8.482;2023-07-29T07:17:26;2.00;;;1.90;;
32505;SDS011;18955;51.224;8.482;2023-07-29T07:19:53;3.25;;;2.45;;
32505;SDS011;18955;51.224;8.482;2023-07-29T07:22:19;4.35;;;2.53;;
32505;SDS011;18955;51.224;8.482;2023-07-29T07:24:45;3.63;;;3.03;;
32505;SDS011;18955;51.224;8.482;2023-07-29T07:27:11;3.88;;;3.53;;
32505;SDS011;18955;51.224;8.482;2023-07-29T07:29:38;3.17;;;2.72;;
32505;SDS011;18955;51.224;8.482;2023-07-29T07:32:04;4.57;;;3.75;;
32505;SDS011;18955;51.224;8.482;2023-07-29T07:34:30;5.35;;;4.10;;
32505;SDS011;18955;51.224;8.482;2023-07-29T07:36:58;4.15;;;3.72;;
32505;SDS011;18955;51.224;8.482;2023-07-29T07:39:26;5.95;;;4.57;;
32505;SDS011;18955;51.224;8.482;2023-07-29T07:41:52;6.43;;;4.70;;
32505;SDS011;18955;51.224;8.482;2023-07-29T07:44:18;7.47;;;4.60;;
32505;SDS011;18955;51.224;8.482;2023-07-29T07:46:45;5.60;;;4.75;;
32505;SDS011;18955;51.224;8.482;2023-07-29T07:49:11;6.72;;;5.78;;
32505;SDS011;18955;51.224;8.482;2023-07-29T07:51:38;5.97;;;5.30;;
32505;SDS011;18955;51.224;8.482;2023-07-29T07:54:05;7.47;;;5.95;;
32505;SDS011;18955;51.224;8.482;2023-07-29T07:56:32;6.88;;;4.60;;
32505;SDS011;18955;51.224;8.482;2023-07-29T07:58:58;7.10;;;6.40;;
32505;SDS011;18955;51.224;8.482;2023-07-29T08:01:24;17.63;;;8.02;;
32505;SDS011;18955;51.224;8.482;2023-07-29T08:03:51;6.45;;;5.78;;
32505;SDS011;18955;51.224;8.482;2023-07-29T08:06:17;10.20;;;5.90;;
32505;SDS011;18955;51.224;8.482;2023-07-29T08:08:43;6.97;;;5.93;;
32505;SDS011;18955;51.224;8.482;2023-07-29T08:11:09;6.85;;;5.28;;
32505;SDS011;18955;51.224;8.482;2023-07-29T08:13:36;7.03;;;5.63;;
32505;SDS011;18955;51.224;8.482;2023-07-29T08:16:02;4.90;;;4.40;;
32505;SDS011;18955;51.224;8.482;2023-07-29T08:18:28;10.75;;;6.03;;
32505;SDS011;18955;51.224;8.482;2023-07-29T08:20:55;6.78;;;6.03;;
32505;SDS011;18955;51.224;8.482;2023-07-29T08:23:29;8.95;;;6.15;;
32505;SDS011;18955;51.224;8.482;2023-07-29T08:26:00;6.40;;;5.90;;
32505;SDS011;18955;51.224;8.482;2023-07-29T08:28:30;5.65;;;5.00;;
32505;SDS011;18955;51.224;8.482;2023-07-29T08:30:57;10.73;;;6.88;;
32505;SDS011;18955;51.224;8.482;2023-07-29T08:33:24;8.27;;;6.55;;
32505;SDS011;18955;51.224;8.482;2023-07-29T08:35:51;6.03;;;5.53;;
32505;SDS011;18955;51.224;8.482;2023-07-29T08:41:04;6.45;;;5.82;;
32505;SDS011;18955;51.224;8.482;2023-07-29T08:46:38;7.60;;;6.80;;
32505;SDS011;18955;51.224;8.482;2023-07-29T08:49:05;8.38;;;7.47;;
32505;SDS011;18955;51.224;8.482;2023-07-29T08:51:32;7.35;;;6.57;;
32505;SDS011;18955;51.224;8.482;2023-07-29T08:53:59;7.57;;;5.90;;
32505;SDS011;18955;51.224;8.482;2023-07-29T08:56:27;8.80;;;6.78;;
32505;SDS011;18955;51.224;8.482;2023-07-29T08:58:53;6.82;;;6.22;;
32505;SDS011;18955;51.224;8.482;2023-07-29T09:01:20;8.05;;;5.57;;
32505;SDS011;18955;51.224;8.482;2023-07-29T09:03:46;8.45;;;6.10;;
32505;SDS011;18955;51.224;8.482;2023-07-29T09:06:12;7.88;;;7.07;;
32505;SDS011;18955;51.224;8.482;2023-07-29T09:08:40;6.88;;;6.18;;
32505;SDS011;18955;51.224;8.482;2023-07-29T09:11:06;8.45;;;5.50;;
32505;SDS011;18955;51.224;8.482;2023-07-29T09:15:59;9.00;;;7.05;;
32505;SDS011;18955;51.224;8.482;2023-07-29T09:18:26;7.68;;;5.70;;
32505;SDS011;18955;51.224;8.482;2023-07-29T09:20:54;10.05;;;7.28;;
32505;SDS011;18955;51.224;8.482;2023-07-29T09:23:24;9.52;;;7.32;;
32505;SDS011;18955;51.224;8.482;2023-07-29T09:25:50;7.88;;;7.15;;
32505;SDS011;18955;51.224;8.482;2023-07-29T09:28:25;10.30;;;6.10;;
32505;SDS011;18955;51.224;8.482;2023-07-29T09:30:53;8.70;;;6.18;;
32505;SDS011;18955;51.224;8.482;2023-07-29T09:33:19;4.80;;;4.40;;
32505;SDS011;18955;51.224;8.482;2023-07-29T09:35:45;6.00;;;5.43;;
32505;SDS011;18955;51.224;8.482;2023-07-29T09:38:14;5.97;;;5.47;;
32505;SDS011;18955;51.224;8.482;2023-07-29T09:40:41;7.68;;;5.63;;
32505;SDS011;18955;51.224;8.482;2023-07-29T09:43:09;7.78;;;6.07;;
32505;SDS011;18955;51.224;8.482;2023-07-29T09:45:35;7.50;;;4.93;;
32505;SDS011;18955;51.224;8.482;2023-07-29T09:48:03;7.35;;;4.82;;
32505;SDS011;18955;51.224;8.482;2023-07-29T09:50:35;11.65;;;5.70;;
32505;SDS011;18955;51.224;8.482;2023-07-29T09:53:02;8.15;;;5.25;;
32505;SDS011;18955;51.224;8.482;2023-07-29T09:55:29;4.75;;;4.22;;
32505;SDS011;18955;51.224;8.482;2023-07-29T09:57:59;8.63;;;5.22;;
32505;SDS011;18955;51.224;8.482;2023-07-29T10:00:28;6.85;;;4.90;;
32505;SDS011;18955;51.224;8.482;2023-07-29T10:02:54;5.35;;;4.85;;
32505;SDS011;18955;51.224;8.482;2023-07-29T10:05:22;9.07;;;4.65;;
32505;SDS011;18955;51.224;8.482;2023-07-29T10:07:52;8.40;;;4.30;;
32505;SDS011;18955;51.224;8.482;2023-07-29T10:10:19;3.80;;;3.50;;
32505;SDS011;18955;51.224;8.482;2023-07-29T10:15:12;6.60;;;3.78;;
32505;SDS011;18955;51.224;8.482;2023-07-29T10:17:39;4.50;;;3.58;;
32505;SDS011;18955;51.224;8.482;2023-07-29T10:20:07;10.88;;;4.00;;
32505;SDS011;18955;51.224;8.482;2023-07-29T10:22:41;7.28;;;3.35;;
32505;SDS011;18955;51.224;8.482;2023-07-29T10:25:10;3.85;;;3.20;;
32505;SDS011;18955;51.224;8.482;2023-07-29T10:27:43;3.40;;;3.10;;
32505;SDS011;18955;51.224;8.482;2023-07-29T10:30:13;4.10;;;3.38;;
32505;SDS011;18955;51.224;8.482;2023-07-29T10:32:43;11.85;;;3.58;;
32505;SDS011;18955;51.224;8.482;2023-07-29T10:35:11;5.45;;;3.47;;
32505;SDS011;18955;51.224;8.482;2023-07-29T10:37:38;5.15;;;3.58;;
32505;SDS011;18955;51.224;8.482;2023-07-29T10:40:09;3.70;;;3.40;;
32505;SDS011;18955;51.224;8.482;2023-07-29T10:42:37;8.05;;;3.95;;
32505;SDS011;18955;51.224;8.482;2023-07-29T10:45:21;7.55;;;3.67;;
32505;SDS011;18955;51.224;8.482;2023-07-29T10:47:48;4.25;;;3.85;;
32505;SDS011;18955;51.224;8.482;2023-07-29T10:50:20;5.68;;;3.20;;
32505;SDS011;18955;51.224;8.482;2023-07-29T10:52:51;3.28;;;2.97;;
32505;SDS011;18955;51.224;8.482;2023-07-29T10:57:52;2.30;;;2.10;;
32505;SDS011;18955;51.224;8.482;2023-07-29T11:02:58;5.88;;;2.33;;
32505;SDS011;18955;51.224;8.482;2023-07-29T11:05:26;4.50;;;2.10;;
32505;SDS011;18955;51.224;8.482;2023-07-29T11:11:05;2.58;;;2.38;;
32505;SDS011;18955;51.224;8.482;2023-07-29T11:13:36;4.63;;;2.13;;
32505;SDS011;18955;51.224;8.482;2023-07-29T11:16:03;2.25;;;1.95;;
32505;SDS011;18955;51.224;8.482;2023-07-29T11:18:31;2.53;;;2.00;;
32505;SDS011;18955;51.224;8.482;2023-07-29T11:20:59;2.33;;;1.95;;
32505;SDS011;18955;51.224;8.482;2023-07-29T11:23:33;1.90;;;1.77;;
32505;SDS011;18955;51.224;8.482;2023-07-29T11:26:01;1.70;;;1.60;;
32505;SDS011;18955;51.224;8.482;2023-07-29T11:28:28;7.85;;;2.33;;
32505;SDS011;18955;51.224;8.482;2023-07-29T11:30:55;1.98;;;1.63;;
32505;SDS011;18955;51.224;8.482;2023-07-29T11:33:23;5.50;;;1.90;;
32505;SDS011;18955;51.224;8.482;2023-07-29T11:35:51;2.33;;;1.45;;
32505;SDS011;18955;51.224;8.482;2023-07-29T11:38:19;1.95;;;1.70;;
32505;SDS011;18955;51.224;8.482;2023-07-29T11:40:59;2.92;;;2.03;;
32505;SDS011;18955;51.224;8.482;2023-07-29T11:43:28;3.95;;;1.83;;
32505;SDS011;18955;51.224;8.482;2023-07-29T11:45:54;4.10;;;1.60;;
32505;SDS011;18955;51.224;8.482;2023-07-29T11:48:28;1.70;;;1.60;;
32505;SDS011;18955;51.224;8.482;2023-07-29T11:50:56;4.18;;;1.40;;
32505;SDS011;18955;51.224;8.482;2023-07-29T11:55:51;1.50;;;1.40;;
32505;SDS011;18955;51.224;8.482;2023-07-29T11:58:18;1.85;;;1.70;;
32505;SDS011;18955;51.224;8.482;2023-07-29T12:00:46;2.70;;;1.38;;
32505;SDS011;18955;51.224;8.482;2023-07-29T12:03:12;4.13;;;1.60;;
32505;SDS011;18955;51.224;8.482;2023-07-29T12:05:39;3.28;;;1.73;;
32505;SDS011;18955;51.224;8.482;2023-07-29T12:08:05;4.45;;;1.52;;
32505;SDS011;18955;51.224;8.482;2023-07-29T12:10:34;2.22;;;1.27;;
32505;SDS011;18955;51.224;8.482;2023-07-29T12:13:01;4.85;;;1.80;;
32505;SDS011;18955;51.224;8.482;2023-07-29T12:15:28;2.53;;;1.73;;
32505;SDS011;18955;51.224;8.482;2023-07-29T12:17:56;1.42;;;1.30;;
32505;SDS011;18955;51.224;8.482;2023-07-29T12:20:23;5.18;;;1.52;;
32505;SDS011;18955;51.224;8.482;2023-07-29T12:25:19;4.68;;;1.67;;
32505;SDS011;18955;51.224;8.482;2023-07-29T12:30:12;3.40;;;1.77;;
32505;SDS011;18955;51.224;8.482;2023-07-29T12:32:45;2.15;;;1.65;;
32505;SDS011;18955;51.224;8.482;2023-07-29T12:35:12;5.75;;;1.70;;
32505;SDS011;18955;51.224;8.482;2023-07-29T12:40:21;6.63;;;2.10;;
32505;SDS011;18955;51.224;8.482;2023-07-29T12:42:49;2.20;;;1.77;;
32505;SDS011;18955;51.224;8.482;2023-07-29T12:45:17;3.42;;;2.20;;
32505;SDS011;18955;51.224;8.482;2023-07-29T12:47:43;2.83;;;2.33;;
32505;SDS011;18955;51.224;8.482;2023-07-29T12:50:10;3.53;;;2.40;;
32505;SDS011;18955;51.224;8.482;2023-07-29T12:52:36;5.45;;;2.20;;
32505;SDS011;18955;51.224;8.482;2023-07-29T12:55:03;4.38;;;2.35;;
32505;SDS011;18955;51.224;8.482;2023-07-29T12:57:29;3.55;;;2.63;;
32505;SDS011;18955;51.224;8.482;2023-07-29T12:59:56;2.92;;;2.53;;
32505;SDS011;18955;51.224;8.482;2023-07-29T13:02:22;2.78;;;2.42;;
32505;SDS011;18955;51.224;8.482;2023-07-29T13:04:48;3.42;;;2.00;;
32505;SDS011;18955;51.224;8.482;2023-07-29T13:07:14;8.48;;;2.28;;
32505;SDS011;18955;51.224;8.482;2023-07-29T13:09:40;1.98;;;1.83;;
32505;SDS011;18955;51.224;8.482;2023-07-29T13:12:06;7.10;;;2.20;;
32505;SDS011;18955;51.224;8.482;2023-07-29T13:14:33;2.75;;;1.70;;
32505;SDS011;18955;51.224;8.482;2023-07-29T13:16:59;1.85;;;1.73;;
32505;SDS011;18955;51.224;8.482;2023-07-29T13:19:25;1.42;;;1.33;;
32505;SDS011;18955;51.224;8.482;2023-07-29T13:21:51;1.65;;;1.40;;
32505;SDS011;18955;51.224;8.482;2023-07-29T13:24:17;3.75;;;1.73;;
32505;SDS011;18955;51.224;8.482;2023-07-29T13:26:43;1.75;;;1.40;;
32505;SDS011;18955;51.224;8.482;2023-07-29T13:29:10;2.40;;;1.70;;
32505;SDS011;18955;51.224;8.482;2023-07-29T13:31:36;2.28;;;1.83;;
32505;SDS011;18955;51.224;8.482;2023-07-29T13:34:02;1.65;;;1.30;;
32505;SDS011;18955;51.224;8.482;2023-07-29T13:36:28;4.68;;;2.25;;
32505;SDS011;18955;51.224;8.482;2023-07-29T13:38:54;2.03;;;1.90;;
32505;SDS011;18955;51.224;8.482;2023-07-29T13:41:20;3.03;;;2.13;;
32505;SDS011;18955;51.224;8.482;2023-07-29T13:43:47;3.63;;;2.33;;
32505;SDS011;18955;51.224;8.482;2023-07-29T13:46:13;2.38;;;2.17;;
32505;SDS011;18955;51.224;8.482;2023-07-29T13:48:39;2.88;;;2.58;;
32505;SDS011;18955;51.224;8.482;2023-07-29T13:51:05;3.83;;;2.53;;
32505;SDS011;18955;51.224;8.482;2023-07-29T13:53:31;4.10;;;3.05;;
32505;SDS011;18955;51.224;8.482;2023-07-29T13:55:57;3.10;;;2.80;;
32505;SDS011;18955;51.224;8.482;2023-07-29T13:58:24;3.03;;;2.72;;
32505;SDS011;18955;51.224;8.482;2023-07-29T14:00:51;5.18;;;3.47;;
32505;SDS011;18955;51.224;8.482;2023-07-29T14:03:18;3.45;;;2.78;;
32505;SDS011;18955;51.224;8.482;2023-07-29T14:05:44;6.07;;;3.30;;
32505;SDS011;18955;51.224;8.482;2023-07-29T14:08:10;2.83;;;2.63;;
32505;SDS011;18955;51.224;8.482;2023-07-29T14:10:36;4.43;;;2.90;;
32505;SDS011;18955;51.224;8.482;2023-07-29T14:13:02;2.72;;;2.50;;
32505;SDS011;18955;51.224;8.482;2023-07-29T14:15:28;4.47;;;2.38;;
32505;SDS011;18955;51.224;8.482;2023-07-29T14:17:55;4.72;;;2.55;;
32505;SDS011;18955;51.224;8.482;2023-07-29T14:20:21;1.70;;;1.60;;
32505;SDS011;18955;51.224;8.482;2023-07-29T14:22:47;5.40;;;2.80;;
32505;SDS011;18955;51.224;8.482;2023-07-29T14:25:14;3.75;;;2.70;;
32505;SDS011;18955;51.224;8.482;2023-07-29T14:27:40;2.45;;;2.25;;
32505;SDS011;18955;51.224;8.482;2023-07-29T14:30:06;2.40;;;2.20;;
32505;SDS011;18955;51.224;8.482;2023-07-29T14:32:33;2.80;;;2.50;;
32505;SDS011;18955;51.224;8.482;2023-07-29T14:34:59;4.95;;;2.38;;
32505;SDS011;18955;51.224;8.482;2023-07-29T14:37:29;3.28;;;2.28;;
32505;SDS011;18955;51.224;8.482;2023-07-29T14:39:57;2.00;;;1.70;;
32505;SDS011;18955;51.224;8.482;2023-07-29T14:42:24;3.03;;;2.03;;
32505;SDS011;18955;51.224;8.482;2023-07-29T14:44:50;2.38;;;2.17;;
32505;SDS011;18955;51.224;8.482;2023-07-29T14:47:16;2.33;;;1.98;;
32505;SDS011;18955;51.224;8.482;2023-07-29T14:49:43;3.75;;;1.98;;
32505;SDS011;18955;51.224;8.482;2023-07-29T14:52:10;2.35;;;2.15;;
32505;SDS011;18955;51.224;8.482;2023-07-29T14:57:04;2.55;;;1.70;;
32505;SDS011;18955;51.224;8.482;2023-07-29T14:59:31;2.25;;;1.90;;
32505;SDS011;18955;51.224;8.482;2023-07-29T15:01:58;1.73;;;1.63;;
32505;SDS011;18955;51.224;8.482;2023-07-29T15:04:24;1.98;;;1.77;;
32505;SDS011;18955;51.224;8.482;2023-07-29T15:06:50;2.08;;;1.88;;
32505;SDS011;18955;51.224;8.482;2023-07-29T15:09:17;1.70;;;1.60;;
32505;SDS011;18955;51.224;8.482;2023-07-29T15:11:43;2.22;;;2.03;;
32505;SDS011;18955;51.224;8.482;2023-07-29T15:14:10;1.58;;;1.48;;
32505;SDS011;18955;51.224;8.482;2023-07-29T15:16:36;2.00;;;1.80;;
32505;SDS011;18955;51.224;8.482;2023-07-29T15:19:04;2.40;;;1.60;;
32505;SDS011;18955;51.224;8.482;2023-07-29T15:21:30;1.90;;;1.63;;
32505;SDS011;18955;51.224;8.482;2023-07-29T15:23:59;4.15;;;1.90;;
32505;SDS011;18955;51.224;8.482;2023-07-29T15:26:25;4.18;;;1.73;;
32505;SDS011;18955;51.224;8.482;2023-07-29T15:28:51;3.03;;;1.50;;
32505;SDS011;18955;51.224;8.482;2023-07-29T15:31:17;1.80;;;1.50;;
32505;SDS011;18955;51.224;8.482;2023-07-29T15:33:44;2.00;;;1.85;;